Time;durP1;ratioP1;P1;durP2;ratioP2;P2;SDS_P1;SDS_P2;PMS_P1;PMS_P2;Temp;Humidity;BMP_temperature;BMP_pressure;BME280_temperature;BME280_humidity;BME280_pressure;Samples;Min_cycle;Max_cycle;Signal;HPM_P1;HPM_P2
2021/05/26 00:01:38;;;;;;;2.50;0.90;;;;;;;;;;4933727;28;20047;-80
2021/05/26 00:04:04;;;;;;;1.70;0.90;;;;;;;;;;4917908;28;20714;-80
2021/05/26 00:06:31;;;;;;;1.55;1.00;;;;;;;;;;4922759;28;20050;-81
2021/05/26 00:08:57;;;;;;;1.58;0.88;;;;;;;;;;4934233;28;20084;-81
2021/05/26 00:11:24;;;;;;;2.47;1.10;;;;;;;;;;4919902;28;20059;-80
2021/05/26 00:13:51;;;;;;;2.22;1.10;;;;;;;;;;4947123;28;20126;-80
2021/05/26 00:16:17;;;;;;;1.75;0.80;;;;;;;;;;4910711;28;20178;-80
2021/05/26 00:18:43;;;;;;;1.83;0.90;;;;;;;;;;4916379;28;20086;-81
2021/05/26 00:21:10;;;;;;;1.88;0.93;;;;;;;;;;4919393;28;20107;-81
2021/05/26 00:23:38;;;;;;;2.70;1.13;;;;;;;;;;4920063;29;20075;-80
2021/05/26 00:26:04;;;;;;;1.33;0.95;;;;;;;;;;4924869;28;20051;-80
2021/05/26 00:28:31;;;;;;;1.55;0.90;;;;;;;;;;4925760;28;20094;-80
2021/05/26 00:30:59;;;;;;;1.25;0.88;;;;;;;;;;4903047;28;20063;-81
2021/05/26 00:33:26;;;;;;;1.80;0.90;;;;;;;;;;4926001;28;20099;-82
2021/05/26 00:35:52;;;;;;;1.45;0.82;;;;;;;;;;4937172;28;20568;-81
2021/05/26 00:38:20;;;;;;;1.77;1.00;;;;;;;;;;4940785;28;20091;-81
2021/05/26 00:40:49;;;;;;;1.80;0.90;;;;;;;;;;4922614;28;20063;-80
2021/05/26 00:43:17;;;;;;;1.38;0.90;;;;;;;;;;4940748;28;20067;-81
2021/05/26 00:45:43;;;;;;;1.40;0.98;;;;;;;;;;4942164;28;20059;-80
2021/05/26 00:48:10;;;;;;;1.60;0.85;;;;;;;;;;4924183;28;20051;-80
2021/05/26 00:50:38;;;;;;;1.40;0.90;;;;;;;;;;4926133;28;20452;-80
2021/05/26 00:53:08;;;;;;;1.60;1.00;;;;;;;;;;4928031;28;20111;-81
2021/05/26 00:55:35;;;;;;;1.60;0.90;;;;;;;;;;4934957;28;20047;-81
2021/05/26 00:58:02;;;;;;;1.73;1.00;;;;;;;;;;4930675;28;20051;-81
2021/05/26 01:00:29;;;;;;;2.22;0.88;;;;;;;;;;4924685;28;20133;-81
2021/05/26 01:02:56;;;;;;;2.20;1.00;;;;;;;;;;4935244;28;20071;-80
2021/05/26 01:05:23;;;;;;;2.47;1.00;;;;;;;;;;4944565;28;20130;-80
2021/05/26 01:07:51;;;;;;;1.48;0.90;;;;;;;;;;4941447;28;20678;-80
2021/05/26 01:10:18;;;;;;;1.63;0.98;;;;;;;;;;4921869;28;20559;-80
2021/05/26 01:12:45;;;;;;;1.70;1.00;;;;;;;;;;4941133;28;20067;-79
2021/05/26 01:15:12;;;;;;;1.70;0.90;;;;;;;;;;4915422;28;20059;-80
2021/05/26 01:17:39;;;;;;;1.95;0.88;;;;;;;;;;4919493;28;20138;-80
2021/05/26 01:20:07;;;;;;;2.38;0.90;;;;;;;;;;4933865;28;20434;-80
2021/05/26 01:22:34;;;;;;;1.05;0.70;;;;;;;;;;4926251;28;20067;-80
2021/05/26 01:25:00;;;;;;;1.90;0.95;;;;;;;;;;4922416;28;20066;-80
2021/05/26 01:27:27;;;;;;;2.00;0.70;;;;;;;;;;4922974;28;20115;-80
2021/05/26 01:29:56;;;;;;;1.10;0.90;;;;;;;;;;4926540;28;20032;-80
2021/05/26 01:32:23;;;;;;;1.98;0.90;;;;;;;;;;4923793;28;20117;-80
2021/05/26 01:34:50;;;;;;;1.70;0.80;;;;;;;;;;4931048;28;20059;-81
2021/05/26 01:37:16;;;;;;;1.90;0.85;;;;;;;;;;4921475;28;20133;-81
2021/05/26 01:39:47;;;;;;;1.40;0.85;;;;;;;;;;4935462;28;20074;-80
2021/05/26 01:42:30;;;;;;;1.17;0.75;;;;;;;;;;4933083;28;20039;-80
2021/05/26 01:44:57;;;;;;;2.30;1.00;;;;;;;;;;4924123;28;20080;-79
2021/05/26 01:47:23;;;;;;;1.45;0.70;;;;;;;;;;4943646;28;20075;-80
2021/05/26 01:49:50;;;;;;;1.55;0.90;;;;;;;;;;4936427;28;20413;-80
2021/05/26 01:52:16;;;;;;;2.30;0.93;;;;;;;;;;4922794;28;20055;-80
2021/05/26 01:54:43;;;;;;;2.13;0.82;;;;;;;;;;4935966;28;20091;-80
2021/05/26 01:57:11;;;;;;;2.38;0.77;;;;;;;;;;4921715;28;20087;-80
2021/05/26 01:59:38;;;;;;;2.58;0.80;;;;;;;;;;4933993;28;20055;-82
2021/05/26 02:02:04;;;;;;;1.48;0.80;;;;;;;;;;4925235;28;20063;-80
2021/05/26 02:04:30;;;;;;;1.10;0.70;;;;;;;;;;4937893;28;20074;-80
2021/05/26 02:07:01;;;;;;;1.75;0.90;;;;;;;;;;4932916;28;20166;-79
2021/05/26 02:09:28;;;;;;;1.33;0.70;;;;;;;;;;4933823;28;20036;-80
2021/05/26 02:14:42;;;;;;;0.93;0.70;;;;;;;;;;4934979;28;20092;-80
2021/05/26 02:17:09;;;;;;;1.20;0.77;;;;;;;;;;4936562;28;20455;-80
2021/05/26 02:19:35;;;;;;;0.88;0.60;;;;;;;;;;4919515;28;20133;-80
2021/05/26 02:22:02;;;;;;;1.45;0.80;;;;;;;;;;4908341;28;20059;-80
2021/05/26 02:24:28;;;;;;;1.40;0.70;;;;;;;;;;4930413;28;20143;-80
2021/05/26 02:26:55;;;;;;;1.80;0.70;;;;;;;;;;4944551;28;20066;-80
2021/05/26 02:29:21;;;;;;;0.90;0.68;;;;;;;;;;4920711;29;20123;-80
2021/05/26 02:31:47;;;;;;;1.00;0.70;;;;;;;;;;4941832;28;20075;-79
2021/05/26 02:34:14;;;;;;;0.98;0.70;;;;;;;;;;4917606;29;20099;-80
2021/05/26 02:36:41;;;;;;;1.40;0.80;;;;;;;;;;4935502;28;20467;-80
2021/05/26 02:39:08;;;;;;;1.83;0.80;;;;;;;;;;4911334;28;20099;-79
2021/05/26 02:41:34;;;;;;;2.13;0.82;;;;;;;;;;4921743;28;20773;-79
2021/05/26 02:44:01;;;;;;;1.45;0.85;;;;;;;;;;4922973;28;20086;-80
2021/05/26 02:46:27;;;;;;;1.63;0.90;;;;;;;;;;4932681;28;20063;-80
2021/05/26 02:48:54;;;;;;;2.05;0.80;;;;;;;;;;4936251;28;20063;-80
2021/05/26 02:51:21;;;;;;;1.25;0.70;;;;;;;;;;4930569;28;20084;-80
2021/05/26 02:53:47;;;;;;;1.85;0.75;;;;;;;;;;4935366;28;20044;-80
2021/05/26 02:56:14;;;;;;;1.00;0.75;;;;;;;;;;4929753;28;20035;-80
2021/05/26 02:58:40;;;;;;;1.50;0.70;;;;;;;;;;4927385;28;20031;-81
2021/05/26 03:01:07;;;;;;;1.92;0.77;;;;;;;;;;4931893;28;20047;-81
2021/05/26 03:03:33;;;;;;;1.70;0.80;;;;;;;;;;4921109;28;20071;-82
2021/05/26 03:06:00;;;;;;;1.02;0.60;;;;;;;;;;4904993;28;20051;-80
2021/05/26 03:08:28;;;;;;;1.13;0.70;;;;;;;;;;4927609;28;20079;-81
2021/05/26 03:10:56;;;;;;;1.42;0.80;;;;;;;;;;4935879;28;20048;-80
2021/05/26 03:13:23;;;;;;;1.58;0.68;;;;;;;;;;4921835;28;20046;-80
2021/05/26 03:15:50;;;;;;;1.15;0.60;;;;;;;;;;4936502;28;20491;-79
2021/05/26 03:18:16;;;;;;;1.45;0.73;;;;;;;;;;4930870;28;20067;-79
2021/05/26 03:20:43;;;;;;;1.00;0.75;;;;;;;;;;4942978;28;20036;-79
2021/05/26 03:23:09;;;;;;;1.42;0.80;;;;;;;;;;4932938;28;20056;-79
2021/05/26 03:25:36;;;;;;;1.15;0.70;;;;;;;;;;4924157;28;20071;-79
2021/05/26 03:28:02;;;;;;;1.45;0.68;;;;;;;;;;4939066;28;20063;-79
2021/05/26 03:30:29;;;;;;;1.65;0.80;;;;;;;;;;4937569;28;21161;-78
2021/05/26 03:32:55;;;;;;;1.58;0.88;;;;;;;;;;4921688;28;20043;-78
2021/05/26 03:35:22;;;;;;;1.00;0.70;;;;;;;;;;4921022;28;20488;-80
2021/05/26 03:37:49;;;;;;;1.00;0.60;;;;;;;;;;4924684;28;20567;-80
2021/05/26 03:40:16;;;;;;;1.70;0.80;;;;;;;;;;4940619;28;20515;-81
2021/05/26 03:42:43;;;;;;;1.20;0.50;;;;;;;;;;4927398;28;20039;-78
2021/05/26 03:45:11;;;;;;;1.23;0.68;;;;;;;;;;4918670;28;20047;-80
2021/05/26 03:47:38;;;;;;;1.77;0.70;;;;;;;;;;4917872;28;20186;-80
2021/05/26 03:50:12;;;;;;;1.80;0.80;;;;;;;;;;4913553;28;20035;-81
2021/05/26 03:52:40;;;;;;;0.98;0.65;;;;;;;;;;4912721;28;20583;-80
2021/05/26 03:55:08;;;;;;;1.20;0.68;;;;;;;;;;4931591;28;20090;-79
2021/05/26 03:57:35;;;;;;;1.55;0.70;;;;;;;;;;4918320;29;20070;-80
2021/05/26 04:00:01;;;;;;;0.80;0.60;;;;;;;;;;4919001;28;20044;-81
2021/05/26 04:02:27;;;;;;;1.40;0.70;;;;;;;;;;4917714;29;20048;-79
2021/05/26 04:04:54;;;;;;;1.30;0.70;;;;;;;;;;4911387;28;20064;-79
2021/05/26 04:07:21;;;;;;;1.88;0.80;;;;;;;;;;4932575;28;20058;-78
2021/05/26 04:09:47;;;;;;;1.85;0.70;;;;;;;;;;4928521;28;20059;-79
2021/05/26 04:12:13;;;;;;;1.75;0.90;;;;;;;;;;4928550;28;20504;-78
2021/05/26 04:14:40;;;;;;;1.67;0.80;;;;;;;;;;4909141;29;20060;-80
2021/05/26 04:17:07;;;;;;;1.77;0.98;;;;;;;;;;4931211;28;20193;-77
2021/05/26 04:19:33;;;;;;;1.35;0.70;;;;;;;;;;4931217;28;20940;-80
2021/05/26 04:21:59;;;;;;;2.00;0.80;;;;;;;;;;4926875;28;20071;-80
2021/05/26 04:24:26;;;;;;;1.02;0.68;;;;;;;;;;4926667;28;20072;-83
2021/05/26 04:26:52;;;;;;;3.30;0.75;;;;;;;;;;4909329;28;20071;-79
2021/05/26 04:29:19;;;;;;;1.38;0.70;;;;;;;;;;4936769;28;20804;-80
2021/05/26 04:31:46;;;;;;;1.20;0.68;;;;;;;;;;4917329;28;20080;-80
2021/05/26 04:34:14;;;;;;;1.17;0.70;;;;;;;;;;4916921;28;21883;-81
2021/05/26 04:36:40;;;;;;;0.98;0.65;;;;;;;;;;4915905;28;20032;-81
2021/05/26 04:39:07;;;;;;;1.45;0.68;;;;;;;;;;4918591;28;20047;-81
2021/05/26 04:41:34;;;;;;;1.02;0.70;;;;;;;;;;4920442;28;20063;-81
2021/05/26 04:44:00;;;;;;;2.13;0.80;;;;;;;;;;4917894;28;20063;-80
2021/05/26 04:46:27;;;;;;;2.72;0.70;;;;;;;;;;4933482;28;20064;-81
2021/05/26 04:48:54;;;;;;;1.65;0.70;;;;;;;;;;4934777;28;20063;-80
2021/05/26 04:51:20;;;;;;;1.35;0.73;;;;;;;;;;4918369;28;20167;-80
2021/05/26 04:53:47;;;;;;;0.90;0.60;;;;;;;;;;4921423;28;20508;-80
2021/05/26 04:56:13;;;;;;;0.85;0.60;;;;;;;;;;4929231;28;20051;-80
2021/05/26 04:58:43;;;;;;;1.70;0.70;;;;;;;;;;4926647;28;20059;-80
2021/05/26 05:01:10;;;;;;;1.50;0.60;;;;;;;;;;4935035;28;20075;-80
2021/05/26 05:03:37;;;;;;;1.60;0.80;;;;;;;;;;4935885;28;20035;-78
2021/05/26 05:06:03;;;;;;;1.85;0.77;;;;;;;;;;4928004;28;20064;-80
2021/05/26 05:08:30;;;;;;;1.92;0.63;;;;;;;;;;4929884;28;20079;-77
2021/05/26 05:10:56;;;;;;;1.65;0.70;;;;;;;;;;4912297;28;20079;-78
2021/05/26 05:13:23;;;;;;;1.83;0.70;;;;;;;;;;4921928;28;20068;-78
2021/05/26 05:15:49;;;;;;;1.02;0.60;;;;;;;;;;4932047;28;20052;-78
2021/05/26 05:18:16;;;;;;;1.25;0.70;;;;;;;;;;4928060;28;20134;-78
2021/05/26 05:20:42;;;;;;;1.73;0.60;;;;;;;;;;4924842;28;20551;-77
2021/05/26 05:23:09;;;;;;;2.88;0.77;;;;;;;;;;4915794;28;20085;-77
2021/05/26 05:25:35;;;;;;;2.80;0.57;;;;;;;;;;4941085;28;20075;-78
2021/05/26 05:28:04;;;;;;;2.45;0.73;;;;;;;;;;4910730;28;20460;-76
2021/05/26 05:30:30;;;;;;;1.15;0.75;;;;;;;;;;4938126;28;20055;-76
2021/05/26 05:32:57;;;;;;;2.08;0.60;;;;;;;;;;4930605;28;20091;-77
2021/05/26 05:35:23;;;;;;;2.28;0.75;;;;;;;;;;4937845;28;20058;-77
2021/05/26 05:37:50;;;;;;;2.15;0.75;;;;;;;;;;4931492;28;20067;-78
2021/05/26 05:40:16;;;;;;;2.58;0.82;;;;;;;;;;4910193;29;20512;-77
2021/05/26 05:42:43;;;;;;;3.05;0.70;;;;;;;;;;4938376;28;20067;-76
2021/05/26 05:45:09;;;;;;;2.38;0.73;;;;;;;;;;4932484;28;20094;-78
2021/05/26 05:47:36;;;;;;;3.15;0.80;;;;;;;;;;4915547;28;20072;-78
2021/05/26 05:50:04;;;;;;;1.23;0.68;;;;;;;;;;4923458;28;20044;-77
2021/05/26 05:52:30;;;;;;;3.22;0.90;;;;;;;;;;4935370;28;20036;-78
2021/05/26 05:54:57;;;;;;;4.22;0.90;;;;;;;;;;4935867;28;20074;-80
2021/05/26 05:57:23;;;;;;;3.03;0.80;;;;;;;;;;4919989;28;20536;-79
2021/05/26 05:59:49;;;;;;;1.60;0.70;;;;;;;;;;4932345;28;20060;-79
2021/05/26 06:02:16;;;;;;;1.92;0.70;;;;;;;;;;4933085;28;20109;-79
2021/05/26 06:04:42;;;;;;;2.25;0.70;;;;;;;;;;4922247;28;20079;-79
2021/05/26 06:07:09;;;;;;;2.03;0.80;;;;;;;;;;4929650;28;20128;-79
2021/05/26 06:09:35;;;;;;;1.63;0.52;;;;;;;;;;4944239;28;20063;-79
2021/05/26 06:12:01;;;;;;;1.70;0.70;;;;;;;;;;4922851;28;20504;-79
2021/05/26 06:14:28;;;;;;;1.20;0.80;;;;;;;;;;4942791;28;20071;-79
2021/05/26 06:16:54;;;;;;;1.42;0.60;;;;;;;;;;4931632;28;20036;-79
2021/05/26 06:19:21;;;;;;;1.65;0.70;;;;;;;;;;4935388;28;20500;-80
2021/05/26 06:21:47;;;;;;;1.75;0.70;;;;;;;;;;4916973;28;20067;-79
2021/05/26 06:24:14;;;;;;;1.45;0.65;;;;;;;;;;4918852;29;20092;-79
2021/05/26 06:26:40;;;;;;;2.42;0.70;;;;;;;;;;4935316;28;20095;-75
2021/05/26 06:29:06;;;;;;;2.20;0.70;;;;;;;;;;4920443;28;22300;-78
2021/05/26 06:31:33;;;;;;;1.73;0.75;;;;;;;;;;4930259;28;20097;-77
2021/05/26 06:34:00;;;;;;;1.30;0.80;;;;;;;;;;4933197;28;20439;-78
2021/05/26 06:36:26;;;;;;;3.97;0.90;;;;;;;;;;4935026;28;20064;-77
2021/05/26 06:38:53;;;;;;;1.23;0.60;;;;;;;;;;4932521;28;20537;-78
2021/05/26 06:41:19;;;;;;;4.80;0.80;;;;;;;;;;4931595;28;20102;-78
2021/05/26 06:43:46;;;;;;;6.40;0.90;;;;;;;;;;4938571;28;20055;-77
2021/05/26 06:46:12;;;;;;;1.88;0.73;;;;;;;;;;4934902;28;20070;-78
2021/05/26 06:48:42;;;;;;;3.05;0.90;;;;;;;;;;4924982;28;20071;-77
2021/05/26 06:51:08;;;;;;;1.25;0.82;;;;;;;;;;4933185;28;20158;-78
2021/05/26 06:53:35;;;;;;;2.90;0.90;;;;;;;;;;4920314;28;20089;-78
2021/05/26 06:56:01;;;;;;;1.25;0.68;;;;;;;;;;4918267;28;20095;-78
2021/05/26 06:58:28;;;;;;;2.05;0.95;;;;;;;;;;4925372;28;20063;-77
2021/05/26 07:00:54;;;;;;;3.92;0.90;;;;;;;;;;4921622;28;20107;-78
2021/05/26 07:03:20;;;;;;;2.17;0.70;;;;;;;;;;4931440;28;20036;-77
2021/05/26 07:05:47;;;;;;;1.83;0.70;;;;;;;;;;4945262;28;20110;-78
2021/05/26 07:08:13;;;;;;;1.25;0.68;;;;;;;;;;4904743;28;21029;-78
2021/05/26 07:10:40;;;;;;;3.00;1.08;;;;;;;;;;4936069;28;20536;-78
2021/05/26 07:13:07;;;;;;;2.83;0.75;;;;;;;;;;4935468;28;20067;-79
2021/05/26 07:15:34;;;;;;;1.50;0.70;;;;;;;;;;4935303;28;20036;-77
2021/05/26 07:18:07;;;;;;;1.42;0.70;;;;;;;;;;4918158;28;20107;-78
2021/05/26 07:20:34;;;;;;;1.15;0.60;;;;;;;;;;4933366;28;20075;-78
2021/05/26 07:23:01;;;;;;;1.25;0.80;;;;;;;;;;4925125;28;20060;-78
2021/05/26 07:25:27;;;;;;;2.22;0.77;;;;;;;;;;4920564;28;20064;-78
2021/05/26 07:27:54;;;;;;;1.42;0.90;;;;;;;;;;4934940;28;20107;-78
2021/05/26 07:30:21;;;;;;;2.22;0.68;;;;;;;;;;4940111;28;20060;-78
2021/05/26 07:32:48;;;;;;;3.55;0.85;;;;;;;;;;4919156;28;20070;-78
2021/05/26 07:35:15;;;;;;;1.27;0.70;;;;;;;;;;4898684;29;20040;-78
2021/05/26 07:37:42;;;;;;;1.73;0.80;;;;;;;;;;4931418;28;20060;-78
2021/05/26 07:40:09;;;;;;;1.15;0.70;;;;;;;;;;4927775;28;20043;-78
2021/05/26 07:42:35;;;;;;;2.03;0.90;;;;;;;;;;4923215;28;20068;-78
2021/05/26 07:45:02;;;;;;;1.45;0.63;;;;;;;;;;4917469;28;20134;-78
2021/05/26 07:47:29;;;;;;;2.47;0.70;;;;;;;;;;4936635;28;20831;-78
2021/05/26 07:49:55;;;;;;;1.40;0.70;;;;;;;;;;4914299;28;20122;-78
2021/05/26 07:52:22;;;;;;;0.82;0.63;;;;;;;;;;4944842;28;20063;-78
2021/05/26 07:54:49;;;;;;;2.05;0.60;;;;;;;;;;4940352;28;20070;-78
2021/05/26 07:57:16;;;;;;;2.40;0.70;;;;;;;;;;4927156;28;20587;-79
2021/05/26 07:59:44;;;;;;;1.83;0.70;;;;;;;;;;4932836;28;20135;-78
2021/05/26 08:02:14;;;;;;;1.60;0.73;;;;;;;;;;4944332;28;20060;-77
2021/05/26 08:04:40;;;;;;;2.03;0.80;;;;;;;;;;4930990;28;20816;-79
2021/05/26 08:07:08;;;;;;;1.60;0.70;;;;;;;;;;4920351;28;20502;-78
2021/05/26 08:09:39;;;;;;;1.40;0.73;;;;;;;;;;4938679;28;20038;-78
2021/05/26 08:12:08;;;;;;;1.13;0.60;;;;;;;;;;4894779;28;20035;-78
2021/05/26 08:14:38;;;;;;;1.83;0.80;;;;;;;;;;4934487;28;20036;-79
2021/05/26 08:17:05;;;;;;;1.73;0.80;;;;;;;;;;4926539;28;20050;-78
2021/05/26 08:19:31;;;;;;;2.45;0.65;;;;;;;;;;4929345;28;20058;-78
2021/05/26 08:21:58;;;;;;;2.50;0.75;;;;;;;;;;4936892;28;20079;-78
2021/05/26 08:24:24;;;;;;;1.98;0.88;;;;;;;;;;4943325;28;20079;-78
2021/05/26 08:26:51;;;;;;;1.80;0.77;;;;;;;;;;4939845;28;20063;-78
2021/05/26 08:29:18;;;;;;;3.13;1.00;;;;;;;;;;4932538;28;20500;-78
2021/05/26 08:31:45;;;;;;;2.00;1.17;;;;;;;;;;4925022;28;20063;-77
2021/05/26 08:34:12;;;;;;;1.13;0.77;;;;;;;;;;4942513;28;20060;-77
2021/05/26 08:36:38;;;;;;;1.67;0.80;;;;;;;;;;4916448;28;20074;-77
2021/05/26 08:39:06;;;;;;;1.38;0.73;;;;;;;;;;4912773;28;20043;-77
2021/05/26 08:41:32;;;;;;;2.85;0.90;;;;;;;;;;4919531;28;20075;-76
2021/05/26 08:43:59;;;;;;;1.13;0.70;;;;;;;;;;4918050;28;20512;-78
2021/05/26 08:46:27;;;;;;;2.33;0.70;;;;;;;;;;4938419;28;20078;-77
2021/05/26 08:48:54;;;;;;;1.42;0.80;;;;;;;;;;4909469;28;20067;-77
2021/05/26 08:51:21;;;;;;;2.17;0.80;;;;;;;;;;4937238;28;20060;-77
2021/05/26 08:53:48;;;;;;;1.48;0.80;;;;;;;;;;4927055;28;20056;-78
2021/05/26 08:56:15;;;;;;;1.63;0.90;;;;;;;;;;4915749;28;20125;-77
2021/05/26 08:58:43;;;;;;;3.20;0.80;;;;;;;;;;4928191;28;20060;-78
2021/05/26 09:01:10;;;;;;;0.88;0.73;;;;;;;;;;4930636;28;20067;-77
2021/05/26 09:03:36;;;;;;;1.88;0.70;;;;;;;;;;4924158;28;20159;-77
2021/05/26 09:06:05;;;;;;;2.50;1.00;;;;;;;;;;4941954;28;20055;-77
2021/05/26 09:08:32;;;;;;;1.95;1.10;;;;;;;;;;4930449;28;20036;-77
2021/05/26 09:11:00;;;;;;;2.25;0.88;;;;;;;;;;4921536;28;20039;-77
2021/05/26 09:13:29;;;;;;;2.35;0.88;;;;;;;;;;4925517;28;20150;-77
2021/05/26 09:15:56;;;;;;;2.45;0.80;;;;;;;;;;4921699;28;20808;-78
2021/05/26 09:18:23;;;;;;;2.13;0.70;;;;;;;;;;4914299;28;20038;-77
2021/05/26 09:20:49;;;;;;;1.63;0.90;;;;;;;;;;4940859;28;20076;-78
2021/05/26 09:23:18;;;;;;;1.75;0.95;;;;;;;;;;4922649;28;20543;-77
2021/05/26 09:25:45;;;;;;;3.13;1.02;;;;;;;;;;4919332;28;20075;-77
2021/05/26 09:28:18;;;;;;;2.22;0.80;;;;;;;;;;4938598;28;20114;-77
2021/05/26 09:30:46;;;;;;;2.08;1.00;;;;;;;;;;4931665;28;20067;-77
2021/05/26 09:33:22;;;;;;;1.83;1.02;;;;;;;;;;4934107;28;20043;-77
2021/05/26 09:35:54;;;;;;;2.80;1.02;;;;;;;;;;4924933;28;20552;-78
2021/05/26 09:38:21;;;;;;;2.10;0.88;;;;;;;;;;4927667;28;20063;-78
2021/05/26 09:40:47;;;;;;;3.13;1.02;;;;;;;;;;4921945;28;20083;-77
2021/05/26 09:43:13;;;;;;;1.63;0.82;;;;;;;;;;4925676;28;20504;-77
2021/05/26 09:45:40;;;;;;;1.67;0.82;;;;;;;;;;4936698;28;20127;-78
2021/05/26 09:48:07;;;;;;;2.92;1.00;;;;;;;;;;4919121;28;20468;-77
2021/05/26 09:50:34;;;;;;;2.13;0.85;;;;;;;;;;4937378;28;20161;-77
2021/05/26 09:53:05;;;;;;;2.30;0.82;;;;;;;;;;4917704;28;20060;-78
2021/05/26 09:55:35;;;;;;;2.87;0.90;;;;;;;;;;4936803;28;20067;-77
2021/05/26 09:58:02;;;;;;;3.08;0.90;;;;;;;;;;4913475;28;20502;-78
2021/05/26 10:00:29;;;;;;;3.33;1.10;;;;;;;;;;4939822;28;20133;-77
2021/05/26 10:02:55;;;;;;;1.83;0.80;;;;;;;;;;4936874;28;20391;-77
2021/05/26 10:05:23;;;;;;;3.05;0.93;;;;;;;;;;4923961;28;20048;-76
2021/05/26 10:07:51;;;;;;;2.30;0.90;;;;;;;;;;4916985;28;20068;-77
2021/05/26 10:10:18;;;;;;;2.58;0.88;;;;;;;;;;4918113;28;20500;-77
2021/05/26 10:12:46;;;;;;;1.38;0.95;;;;;;;;;;4939058;28;20099;-76
2021/05/26 10:15:13;;;;;;;2.47;1.00;;;;;;;;;;4932728;28;20051;-77
2021/05/26 10:17:49;;;;;;;2.22;1.00;;;;;;;;;;4933624;28;20072;-78
2021/05/26 10:20:16;;;;;;;1.67;0.75;;;;;;;;;;4937510;28;20547;-77
2021/05/26 10:22:43;;;;;;;2.20;1.17;;;;;;;;;;4919984;28;20032;-77
2021/05/26 10:25:12;;;;;;;1.75;0.70;;;;;;;;;;4920200;28;20051;-77
2021/05/26 10:27:43;;;;;;;2.28;1.00;;;;;;;;;;4923166;29;20048;-77
2021/05/26 10:30:10;;;;;;;3.33;0.93;;;;;;;;;;4924177;28;21035;-80
2021/05/26 10:32:52;;;;;;;2.42;0.90;;;;;;;;;;4940912;28;20442;-77
2021/05/26 10:35:19;;;;;;;2.42;1.05;;;;;;;;;;4929898;28;20035;-77
2021/05/26 10:37:47;;;;;;;2.80;0.93;;;;;;;;;;4925071;28;20058;-77
2021/05/26 10:40:30;;;;;;;1.60;0.70;;;;;;;;;;4936919;28;21878;-77
2021/05/26 10:43:19;;;;;;;2.47;0.80;;;;;;;;;;4901286;28;20153;-77
2021/05/26 10:45:49;;;;;;;1.73;1.00;;;;;;;;;;4933430;28;20747;-77
2021/05/26 10:48:48;;;;;;;2.88;1.00;;;;;;;;;;4905048;29;20063;-77
2021/05/26 10:51:15;;;;;;;2.88;1.10;;;;;;;;;;4905178;28;20295;-77
2021/05/26 10:53:42;;;;;;;3.15;0.93;;;;;;;;;;4933868;28;20067;-77
2021/05/26 10:56:27;;;;;;;1.77;0.85;;;;;;;;;;4924320;28;20123;-79
2021/05/26 10:59:09;;;;;;;2.40;0.90;;;;;;;;;;4939767;28;20059;-77
2021/05/26 11:01:55;;;;;;;1.60;0.80;;;;;;;;;;4934979;28;20036;-76
2021/05/26 11:04:22;;;;;;;2.17;0.90;;;;;;;;;;4932885;28;20560;-77
2021/05/26 11:06:49;;;;;;;2.97;1.00;;;;;;;;;;4925910;28;20048;-77
2021/05/26 11:09:16;;;;;;;1.63;0.77;;;;;;;;;;4920018;29;21642;-77
2021/05/26 11:11:42;;;;;;;3.80;1.42;;;;;;;;;;4946988;28;20059;-78
2021/05/26 11:14:10;;;;;;;5.07;1.50;;;;;;;;;;4932064;28;20067;-78
2021/05/26 11:16:37;;;;;;;5.28;2.10;;;;;;;;;;4929390;28;20036;-78
2021/05/26 11:19:14;;;;;;;4.20;2.05;;;;;;;;;;4921874;28;20091;-78
2021/05/26 11:22:01;;;;;;;4.40;2.50;;;;;;;;;;4919760;28;20670;-78
2021/05/26 11:24:29;;;;;;;5.72;2.30;;;;;;;;;;4916345;28;20382;-78
2021/05/26 11:26:56;;;;;;;5.65;2.03;;;;;;;;;;4933016;28;20063;-78
2021/05/26 11:29:29;;;;;;;5.90;1.80;;;;;;;;;;4916989;28;20126;-78
2021/05/26 11:32:08;;;;;;;7.05;1.80;;;;;;;;;;4934546;28;20117;-78
2021/05/26 11:34:34;;;;;;;5.75;2.05;;;;;;;;;;4915598;28;20135;-81
2021/05/26 11:37:01;;;;;;;4.70;1.90;;;;;;;;;;4921038;28;20051;-80
2021/05/26 11:39:29;;;;;;;6.75;1.90;;;;;;;;;;4937834;28;20060;-80
2021/05/26 11:42:09;;;;;;;3.55;1.30;;;;;;;;;;4920517;28;20055;-80
2021/05/26 11:44:45;;;;;;;3.85;1.70;;;;;;;;;;4925056;28;20157;-79
2021/05/26 11:47:12;;;;;;;5.05;1.35;;;;;;;;;;4931176;28;20047;-80
2021/05/26 11:49:40;;;;;;;6.35;1.58;;;;;;;;;;4921214;28;20036;-80
2021/05/26 11:52:25;;;;;;;5.05;1.33;;;;;;;;;;4916925;28;20643;-80
2021/05/26 11:54:58;;;;;;;3.40;1.13;;;;;;;;;;4921026;28;20080;-80
2021/05/26 11:57:34;;;;;;;2.63;1.30;;;;;;;;;;4917612;28;20118;-80
2021/05/26 12:00:01;;;;;;;2.75;1.17;;;;;;;;;;4933457;28;20135;-80
2021/05/26 12:02:29;;;;;;;3.55;1.30;;;;;;;;;;4919614;28;20115;-79
2021/05/26 12:04:56;;;;;;;2.20;1.10;;;;;;;;;;4932010;28;20043;-79
2021/05/26 12:07:26;;;;;;;2.97;1.40;;;;;;;;;;4938143;28;20063;-79
2021/05/26 12:09:55;;;;;;;4.43;1.27;;;;;;;;;;4917395;28;20130;-80
2021/05/26 12:12:22;;;;;;;2.30;1.25;;;;;;;;;;4925504;28;20575;-80
2021/05/26 12:14:49;;;;;;;3.00;1.50;;;;;;;;;;4922407;28;20603;-80
2021/05/26 12:17:17;;;;;;;3.97;1.20;;;;;;;;;;4931356;28;20058;-79
2021/05/26 12:19:44;;;;;;;2.65;1.25;;;;;;;;;;4937075;28;20091;-80
2021/05/26 12:22:17;;;;;;;2.67;1.27;;;;;;;;;;4926737;28;20488;-79
2021/05/26 12:24:58;;;;;;;4.00;1.40;;;;;;;;;;4919760;28;20051;-80
2021/05/26 12:27:31;;;;;;;3.50;1.27;;;;;;;;;;4925486;28;20507;-78
2021/05/26 12:30:18;;;;;;;3.45;1.20;;;;;;;;;;4943596;28;20583;-78
2021/05/26 12:32:45;;;;;;;3.20;1.30;;;;;;;;;;4940855;28;20106;-78
2021/05/26 12:35:12;;;;;;;3.65;1.30;;;;;;;;;;4943188;28;20063;-78
2021/05/26 12:37:39;;;;;;;2.22;1.02;;;;;;;;;;4939486;28;20071;-78
2021/05/26 12:40:06;;;;;;;2.95;1.25;;;;;;;;;;4928960;28;20067;-78
2021/05/26 12:42:40;;;;;;;3.78;1.50;;;;;;;;;;4910062;29;20063;-79
2021/05/26 12:45:19;;;;;;;3.75;1.25;;;;;;;;;;4919426;28;20457;-79
2021/05/26 12:47:46;;;;;;;2.60;1.10;;;;;;;;;;4919675;29;20111;-78
2021/05/26 12:50:16;;;;;;;3.95;1.30;;;;;;;;;;4937546;28;20060;-79
2021/05/26 12:52:42;;;;;;;3.40;1.45;;;;;;;;;;4923161;28;20103;-77
2021/05/26 12:55:15;;;;;;;5.53;1.50;;;;;;;;;;4927644;28;20044;-76
2021/05/26 12:57:43;;;;;;;3.75;1.45;;;;;;;;;;4940583;28;20528;-77
2021/05/26 13:00:14;;;;;;;4.25;1.42;;;;;;;;;;4929182;28;20075;-76
2021/05/26 13:02:42;;;;;;;3.95;1.20;;;;;;;;;;4918588;28;20524;-76
2021/05/26 13:05:12;;;;;;;6.40;1.20;;;;;;;;;;4933353;28;20123;-76
2021/05/26 13:07:41;;;;;;;3.13;1.40;;;;;;;;;;4917575;28;20067;-77
2021/05/26 13:10:22;;;;;;;5.93;1.40;;;;;;;;;;4925495;28;20070;-77
2021/05/26 13:12:49;;;;;;;2.47;1.02;;;;;;;;;;4940309;28;20067;-77
2021/05/26 13:15:41;;;;;;;3.67;1.17;;;;;;;;;;4926500;28;20063;-75
2021/05/26 13:18:08;;;;;;;3.10;0.98;;;;;;;;;;4912508;28;20510;-77
2021/05/26 13:20:35;;;;;;;5.60;1.10;;;;;;;;;;4930946;28;20088;-77
2021/05/26 13:23:02;;;;;;;4.65;1.38;;;;;;;;;;4919950;28;20142;-76
2021/05/26 13:25:29;;;;;;;4.97;1.10;;;;;;;;;;4923019;28;20098;-76
2021/05/26 13:27:56;;;;;;;3.00;1.00;;;;;;;;;;4914735;28;20134;-76
2021/05/26 13:30:26;;;;;;;2.95;1.20;;;;;;;;;;4929805;28;20095;-76
2021/05/26 13:32:53;;;;;;;3.47;0.90;;;;;;;;;;4929512;28;20080;-76
2021/05/26 13:35:19;;;;;;;2.72;1.10;;;;;;;;;;4941706;28;20173;-76
2021/05/26 13:37:46;;;;;;;3.88;1.33;;;;;;;;;;4926032;28;20071;-76
2021/05/26 13:40:13;;;;;;;3.70;1.20;;;;;;;;;;4913778;28;20466;-76
2021/05/26 13:42:40;;;;;;;3.63;1.10;;;;;;;;;;4942559;28;20035;-76
2021/05/26 13:45:09;;;;;;;2.72;1.20;;;;;;;;;;4929779;28;20036;-76
2021/05/26 13:47:35;;;;;;;2.90;1.10;;;;;;;;;;4940280;28;20031;-75
2021/05/26 13:50:03;;;;;;;2.75;1.08;;;;;;;;;;4924389;28;20044;-76
2021/05/26 13:52:29;;;;;;;2.50;1.02;;;;;;;;;;4924801;28;20072;-76
2021/05/26 13:54:56;;;;;;;3.50;1.20;;;;;;;;;;4937560;28;20051;-76
2021/05/26 13:57:23;;;;;;;3.30;1.30;;;;;;;;;;4927541;28;20078;-76
2021/05/26 13:59:49;;;;;;;2.03;0.98;;;;;;;;;;4906459;28;20117;-77
2021/05/26 14:02:16;;;;;;;2.35;0.80;;;;;;;;;;4918828;28;20051;-76
2021/05/26 14:04:42;;;;;;;2.65;1.20;;;;;;;;;;4930530;28;20134;-76
2021/05/26 14:07:09;;;;;;;3.00;0.90;;;;;;;;;;4938113;28;20079;-76
2021/05/26 14:09:36;;;;;;;1.83;1.00;;;;;;;;;;4933865;28;20059;-76
2021/05/26 14:12:03;;;;;;;2.58;1.15;;;;;;;;;;4921425;28;20032;-76
2021/05/26 14:14:31;;;;;;;2.72;1.08;;;;;;;;;;4920392;28;20099;-77
2021/05/26 14:16:58;;;;;;;3.72;1.00;;;;;;;;;;4939705;28;20067;-76
2021/05/26 14:19:25;;;;;;;2.72;1.08;;;;;;;;;;4919690;28;20067;-76
2021/05/26 14:21:53;;;;;;;1.90;0.95;;;;;;;;;;4920628;28;20473;-76
2021/05/26 14:24:19;;;;;;;2.92;0.88;;;;;;;;;;4934011;28;20068;-76
2021/05/26 14:26:46;;;;;;;2.67;0.73;;;;;;;;;;4934950;28;20476;-76
2021/05/26 14:29:12;;;;;;;2.83;1.00;;;;;;;;;;4927736;28;20094;-76
2021/05/26 14:31:38;;;;;;;2.45;0.82;;;;;;;;;;4919293;28;20072;-74
2021/05/26 14:34:07;;;;;;;3.90;0.80;;;;;;;;;;4935332;28;20400;-76
2021/05/26 14:36:34;;;;;;;1.92;0.95;;;;;;;;;;4913805;28;20041;-76
2021/05/26 14:39:03;;;;;;;2.58;1.30;;;;;;;;;;4915955;28;20476;-76
2021/05/26 14:41:30;;;;;;;1.70;0.75;;;;;;;;;;4915444;28;20452;-76
2021/05/26 14:44:00;;;;;;;1.98;0.93;;;;;;;;;;4934181;28;20115;-76
2021/05/26 14:46:27;;;;;;;2.83;1.00;;;;;;;;;;4937635;28;20071;-76
2021/05/26 14:48:57;;;;;;;2.08;1.00;;;;;;;;;;4935346;28;22729;-76
2021/05/26 14:51:24;;;;;;;3.08;1.08;;;;;;;;;;4916148;29;20590;-76